createdAt,value
2023-03-23T15:57:53.824Z,59.06
2023-03-23T16:00:56.459Z,59.01
2023-03-23T16:04:05.963Z,58.80
2023-03-23T16:07:08.759Z,59.00
2023-03-23T16:10:23.053Z,59.04
2023-03-23T16:13:24.688Z,58.90
2023-03-23T16:16:38.836Z,59.05
2023-03-23T16:19:40.439Z,58.98
2023-03-23T16:22:42.358Z,58.87
2023-03-23T16:25:44.421Z,58.72
2023-03-23T16:28:46.324Z,58.64
2023-03-23T16:31:47.888Z,58.70
2023-03-23T16:34:49.406Z,58.72
2023-03-23T16:38:07.235Z,58.67
2023-03-23T16:41:10.240Z,58.67
2023-03-23T16:44:12.615Z,58.60
2023-03-23T16:47:14.202Z,58.79
2023-03-23T16:50:18.521Z,58.76
2023-03-23T16:53:20.971Z,58.69
2023-03-23T16:56:22.574Z,58.53
2023-03-23T16:59:24.111Z,58.64
2023-03-23T17:02:25.875Z,58.76
2023-03-23T17:05:29.235Z,58.58
2023-03-23T17:08:30.924Z,58.57
2023-03-23T17:11:32.573Z,58.74
2023-03-23T17:14:34.298Z,58.60
2023-03-23T17:17:36.164Z,58.63
2023-03-23T17:20:38.131Z,58.74
2023-03-23T17:23:39.674Z,58.49
2023-03-23T17:26:41.808Z,58.78
2023-03-23T17:29:44.121Z,58.54
2023-03-23T17:32:47.625Z,58.51
2023-03-23T17:35:52.038Z,58.60
2023-03-23T17:38:53.819Z,58.66
2023-03-23T17:41:55.603Z,58.67
2023-03-23T17:44:57.143Z,58.60
2023-03-23T17:47:58.797Z,58.70
2023-03-23T17:51:02.352Z,58.63
2023-03-23T17:54:04.054Z,58.58
2023-03-23T17:57:05.990Z,58.55
2023-03-23T18:00:09.125Z,58.54
2023-03-23T18:03:10.855Z,58.53
2023-03-23T18:06:12.692Z,58.52
2023-03-23T18:09:15.542Z,58.59
2023-03-23T18:12:17.799Z,58.54
2023-03-23T18:15:19.494Z,58.55
2023-03-23T18:18:22.249Z,58.45
2023-03-23T18:21:23.853Z,58.46
2023-03-23T18:24:25.562Z,58.49
2023-03-23T18:27:27.193Z,58.55
2023-03-23T18:30:28.801Z,58.43
2023-03-23T18:33:30.416Z,58.42
2023-03-23T18:36:32.106Z,58.41
2023-03-23T18:39:38.029Z,58.40
2023-03-23T18:42:41.232Z,58.30
2023-03-23T18:45:48.845Z,58.34
2023-03-23T18:48:50.415Z,58.50
2023-03-23T18:51:51.957Z,58.39
2023-03-23T18:54:53.791Z,58.28
2023-03-23T18:57:55.647Z,58.44
2023-03-23T19:00:57.615Z,58.28
2023-03-23T19:03:59.283Z,58.26
2023-03-23T19:07:04.493Z,58.27
2023-03-23T19:10:06.423Z,58.38
2023-03-23T19:13:09.381Z,58.42
2023-03-23T19:16:11.061Z,58.33
2023-03-23T19:19:12.653Z,58.41
2023-03-23T19:22:14.252Z,58.37
2023-03-23T19:25:16.016Z,58.38
2023-03-23T19:31:25.136Z,58.33
2023-03-23T19:34:28.159Z,58.25
2023-03-23T19:37:34.609Z,58.24
2023-03-23T19:40:42.063Z,58.33
2023-03-23T19:43:44.194Z,58.37
2023-03-23T19:46:46.171Z,58.39
2023-03-23T19:49:47.826Z,58.51
2023-03-23T19:52:49.382Z,58.54
2023-03-23T19:55:51.672Z,58.22
2023-03-23T19:58:53.624Z,58.46
2023-03-23T20:01:55.188Z,58.46
2023-03-23T20:04:57.032Z,58.51
2023-03-23T20:07:58.593Z,58.38
2023-03-23T20:11:04.858Z,58.50
2023-03-23T20:14:07.393Z,58.35
2023-03-23T20:17:09.913Z,58.50
2023-03-23T20:20:11.897Z,58.51
2023-03-23T20:23:13.539Z,58.34
2023-03-23T20:26:25.688Z,58.54
2023-03-23T20:29:31.342Z,58.42
2023-03-23T20:32:33.265Z,58.48
2023-03-23T20:35:34.944Z,58.55
2023-03-23T20:38:38.538Z,58.50
2023-03-23T20:41:40.565Z,58.59
2023-03-23T20:44:42.955Z,58.62
2023-03-23T20:47:44.588Z,58.61
2023-03-23T20:50:47.250Z,58.52
2023-03-23T20:53:48.779Z,58.65
2023-03-23T20:56:51.715Z,58.58
2023-03-23T20:59:53.850Z,58.58
2023-03-23T21:02:55.905Z,58.63
2023-03-23T21:05:58.426Z,58.61
2023-03-23T21:09:00.017Z,58.67
2023-03-23T21:12:06.184Z,58.66
2023-03-23T21:15:08.333Z,58.74
2023-03-23T21:18:11.208Z,58.97
2023-03-23T21:21:15.089Z,58.65
2023-03-23T21:24:16.931Z,58.66
2023-03-23T21:27:18.615Z,58.70
2023-03-23T21:30:21.703Z,58.70
2023-03-23T21:33:24.221Z,58.77
2023-03-23T21:36:27.291Z,58.75
2023-03-23T21:39:29.044Z,58.92
2023-03-23T21:42:30.936Z,58.77
2023-03-23T21:45:33.732Z,58.81
2023-03-23T21:48:38.749Z,58.81
2023-03-23T21:51:41.722Z,58.85
2023-03-23T21:54:43.230Z,58.89
2023-03-23T21:57:44.969Z,58.80
2023-03-23T22:00:49.823Z,58.88
2023-03-23T22:03:51.987Z,58.95
2023-03-23T22:06:53.570Z,58.98
2023-03-23T22:09:55.138Z,58.92
2023-03-23T22:12:56.879Z,59.00
2023-03-23T22:16:01.200Z,58.89
2023-03-23T22:19:03.655Z,58.88
2023-03-23T22:22:05.979Z,59.00
2023-03-23T22:25:08.690Z,58.97
2023-03-23T22:28:10.576Z,58.96
2023-03-23T22:31:18.470Z,58.97
2023-03-23T22:34:20.502Z,58.98
2023-03-23T22:37:22.115Z,59.01
2023-03-23T22:40:24.041Z,59.02
2023-03-23T22:43:27.016Z,59.05
2023-03-23T22:46:28.814Z,59.04
2023-03-23T22:49:30.401Z,59.05
2023-03-23T22:52:32.748Z,58.95
2023-03-23T22:55:34.318Z,58.89
2023-03-23T22:58:36.279Z,59.12
2023-03-23T23:01:38.076Z,59.05
2023-03-23T23:04:39.675Z,59.08
2023-03-23T23:07:41.569Z,59.26
2023-03-23T23:10:46.346Z,59.08
2023-03-23T23:13:48.798Z,58.91
2023-03-23T23:16:51.835Z,59.11
2023-03-23T23:19:53.512Z,59.05
2023-03-23T23:22:55.074Z,59.00
2023-03-23T23:25:57.265Z,58.99
2023-03-23T23:28:58.885Z,59.20
2023-03-23T23:32:02.203Z,59.25
2023-03-23T23:35:05.041Z,59.27
2023-03-23T23:38:09.636Z,59.31
2023-03-23T23:41:11.296Z,59.32
2023-03-23T23:44:12.874Z,59.28
2023-03-23T23:47:14.635Z,59.38
2023-03-23T23:50:16.968Z,59.58
2023-03-23T23:53:22.777Z,59.45
2023-03-23T23:56:25.157Z,59.56
2023-03-23T23:59:27.316Z,59.60
